F100 — IZ9520 — position and weather

sailwx.info

Track history (hours):
 
Tides and Currents Weather Stations Pressure Air Temp Water Temp Dewpoint Dewpoint Depression Visibility Wind Speed Wind Dir Waves Ship Positions

F100

Last reported at 2014-Jul-05 04:15 UTC. Time now 2014-Jul-22 15:25 UTC.
Position N 40°43' E 014°14'.
Warning: this ship's position is 17 days out of date.

Length 32 m; draft 3.2 m.

Type: Pleasure craft. MMSI: 247387000.

Date/timePositionNaut miles runAvg speedWind from/ knotsBaromVisibWave heightAir tempDewpointWater temp
2014-Jul-05 04:15N 40°43' E 014°14'9 1.2
2014-Jul-04 20:09N 40°34' E 014°14'0 0.0
2014-Jul-04 17:09N 40°34' E 014°14'0 0.0
2014-Jul-04 14:30N 40°34' E 014°14'0 0.0
2014-Jul-03 20:20N 40°34' E 014°14'0 0.0
2014-Jul-03 17:31N 40°34' E 014°14'0 0.0
2014-Jul-03 16:30N 40°34' E 014°14'8 6.6
2014-Jul-03 15:20N 40°37' E 014°05'229 5.2
2014-Jul-01 19:21N 43°10' E 010°16'1011.6
2014-Jul-01 18:30N 43°19' E 010°09'1111.5
2014-Jul-01 17:33N 43°28' E 010°01'1111.2
2014-Jul-01 16:33N 43°38' E 009°55'1111.0
2014-Jul-01 15:33N 43°49' E 009°52'1110.7
2014-Jul-01 14:33N 43°59' E 009°46'1211.6
2014-Jul-01 13:33N 44°07' E 009°34'1211.6
2014-Jul-01 12:33N 44°14' E 009°22'  
2014-Jun-25 07:31N 44°06' E 009°52'0 0.0
2014-Jun-25 06:31N 44°06' E 009°52'0 0.0
2014-Jun-25 05:31N 44°06' E 009°51'0 0.0
2014-Jun-25 04:31N 44°06' E 009°51'  
Track history (hours):
 
Tides and Currents Weather Stations Pressure Air Temp Water Temp Dewpoint Dewpoint Depression Visibility Wind Speed Wind Dir Waves Ship Positions

F100

Last reported at 2014-Jul-05 04:15 UTC. Time now 2014-Jul-22 15:25 UTC.
Position N 40°43' E 014°14'.
Warning: this ship's position is 17 days out of date.

Length 32 m; draft 3.2 m.

Type: Pleasure craft. MMSI: 247387000.

Date/timePositionNaut miles runAvg speedWind from/ knotsBaromVisibWave heightAir tempDewpointWater temp
2014-Jul-05 04:15N 40°43' E 014°14'9 1.2
2014-Jul-04 20:09N 40°34' E 014°14'0 0.0
2014-Jul-04 17:09N 40°34' E 014°14'0 0.0
2014-Jul-04 14:30N 40°34' E 014°14'0 0.0
2014-Jul-03 20:20N 40°34' E 014°14'0 0.0
2014-Jul-03 17:31N 40°34' E 014°14'0 0.0
2014-Jul-03 16:30N 40°34' E 014°14'8 6.6
2014-Jul-03 15:20N 40°37' E 014°05'229 5.2
2014-Jul-01 19:21N 43°10' E 010°16'1011.6
2014-Jul-01 18:30N 43°19' E 010°09'1111.5
2014-Jul-01 17:33N 43°28' E 010°01'1111.2
2014-Jul-01 16:33N 43°38' E 009°55'1111.0
2014-Jul-01 15:33N 43°49' E 009°52'1110.7
2014-Jul-01 14:33N 43°59' E 009°46'1211.6
2014-Jul-01 13:33N 44°07' E 009°34'1211.6
2014-Jul-01 12:33N 44°14' E 009°22'  
2014-Jun-25 07:31N 44°06' E 009°52'0 0.0
2014-Jun-25 06:31N 44°06' E 009°52'0 0.0
2014-Jun-25 05:31N 44°06' E 009°51'0 0.0
2014-Jun-25 04:31N 44°06' E 009°51'  

Dump ship's entire track history